Time;durP1;ratioP1;P1;durP2;ratioP2;P2;SDS_P1;SDS_P2;PMS_P1;PMS_P2;Temp;Humidity;BMP_temperature;BMP_pressure;BME280_temperature;BME280_humidity;BME280_pressure;Samples;Min_cycle;Max_cycle;Signal;HPM_P1;HPM_P2
2024/02/28 00:02:04;;;;;;;75.10;22.83;;;;;;;;;;5004535;28;20408;-68
2024/02/28 00:04:30;;;;;;;76.65;24.95;;;;;;;;;;5003825;28;20260;-68
2024/02/28 00:06:55;;;;;;;75.30;23.33;;;;;;;;;;5007528;28;20025;-68
2024/02/28 00:09:20;;;;;;;66.85;22.40;;;;;;;;;;5001055;28;20034;-68
2024/02/28 00:11:46;;;;;;;65.18;23.88;;;;;;;;;;5008731;28;20030;-68
2024/02/28 00:14:11;;;;;;;52.63;22.20;;;;;;;;;;4998103;28;20021;-68
2024/02/28 00:16:40;;;;;;;64.50;23.02;;;;;;;;;;5008194;28;20374;-69
2024/02/28 00:19:05;;;;;;;57.97;21.40;;;;;;;;;;5001245;28;20018;-68
2024/02/28 00:21:31;;;;;;;74.68;25.25;;;;;;;;;;5005080;28;20019;-68
2024/02/28 00:23:56;;;;;;;65.90;22.45;;;;;;;;;;5000251;28;20025;-68
2024/02/28 00:26:21;;;;;;;64.15;22.52;;;;;;;;;;5008326;28;20030;-68
2024/02/28 00:28:46;;;;;;;61.97;22.77;;;;;;;;;;4997268;28;20105;-68
2024/02/28 00:31:11;;;;;;;57.72;20.23;;;;;;;;;;5004973;28;20288;-68
2024/02/28 00:33:36;;;;;;;58.20;19.47;;;;;;;;;;5001303;28;20385;-68
2024/02/28 00:36:02;;;;;;;55.67;20.50;;;;;;;;;;4998080;28;20318;-69
2024/02/28 00:38:27;;;;;;;60.00;21.48;;;;;;;;;;5008921;28;20056;-68
2024/02/28 00:40:53;;;;;;;57.35;21.90;;;;;;;;;;5003468;28;20084;-68
2024/02/28 00:43:18;;;;;;;59.13;22.15;;;;;;;;;;5002259;28;20022;-68
2024/02/28 00:45:44;;;;;;;59.23;20.83;;;;;;;;;;4998755;28;20393;-68
2024/02/28 00:48:09;;;;;;;60.22;21.60;;;;;;;;;;5000271;28;20262;-68
2024/02/28 00:50:34;;;;;;;66.95;22.27;;;;;;;;;;5001057;28;20362;-68
2024/02/28 00:52:59;;;;;;;66.40;23.15;;;;;;;;;;5004178;28;20041;-68
2024/02/28 00:55:24;;;;;;;59.20;22.70;;;;;;;;;;5006175;28;20086;-68
2024/02/28 00:57:50;;;;;;;63.73;21.27;;;;;;;;;;5005411;28;20047;-68
2024/02/28 01:00:15;;;;;;;72.60;24.23;;;;;;;;;;5004812;28;20330;-68
2024/02/28 01:02:41;;;;;;;84.65;26.05;;;;;;;;;;5021781;28;20060;-68
2024/02/28 01:05:06;;;;;;;94.47;25.13;;;;;;;;;;5004428;28;20058;-68
2024/02/28 01:07:32;;;;;;;86.25;25.42;;;;;;;;;;5008159;28;20492;-68
2024/02/28 01:09:57;;;;;;;98.63;26.40;;;;;;;;;;5007597;28;20056;-68
2024/02/28 01:12:22;;;;;;;85.80;25.07;;;;;;;;;;5006999;28;20273;-68
2024/02/28 01:14:47;;;;;;;89.50;27.85;;;;;;;;;;5003447;28;20253;-68
2024/02/28 01:17:12;;;;;;;96.50;27.17;;;;;;;;;;5001962;28;20156;-68
2024/02/28 01:19:38;;;;;;;95.65;27.52;;;;;;;;;;5002623;28;20640;-68
2024/02/28 01:22:03;;;;;;;78.65;25.65;;;;;;;;;;5001492;28;20031;-68
2024/02/28 01:24:28;;;;;;;94.40;27.13;;;;;;;;;;5007185;28;20380;-68
2024/02/28 01:26:53;;;;;;;95.03;27.60;;;;;;;;;;4996849;28;20315;-68
2024/02/28 01:29:18;;;;;;;103.60;29.37;;;;;;;;;;5002001;28;20779;-68
2024/02/28 01:31:44;;;;;;;109.07;30.00;;;;;;;;;;5000975;28;20276;-68
2024/02/28 01:34:09;;;;;;;102.72;29.80;;;;;;;;;;4999897;28;20260;-68
2024/02/28 01:36:34;;;;;;;100.80;28.67;;;;;;;;;;5002452;28;20044;-68
2024/02/28 01:38:59;;;;;;;89.25;27.67;;;;;;;;;;5006129;28;20359;-70
2024/02/28 01:41:24;;;;;;;102.18;29.63;;;;;;;;;;5002062;28;20022;-70
2024/02/28 01:43:50;;;;;;;103.95;30.25;;;;;;;;;;5007757;28;20479;-70
2024/02/28 01:46:25;;;;;;;107.68;30.23;;;;;;;;;;5001232;28;20033;-69
2024/02/28 01:48:50;;;;;;;117.35;29.40;;;;;;;;;;5004736;28;20497;-69
2024/02/28 01:51:16;;;;;;;116.60;30.90;;;;;;;;;;5008261;28;20040;-69
2024/02/28 01:53:42;;;;;;;99.07;29.20;;;;;;;;;;5010670;28;20484;-69
2024/02/28 01:56:07;;;;;;;115.68;29.48;;;;;;;;;;5006338;28;20033;-69
2024/02/28 01:58:33;;;;;;;110.65;30.15;;;;;;;;;;5010671;28;20108;-69
2024/02/28 02:00:58;;;;;;;104.18;31.73;;;;;;;;;;5004479;28;20034;-69
2024/02/28 02:03:24;;;;;;;107.78;29.67;;;;;;;;;;5008716;28;20419;-70
2024/02/28 02:05:49;;;;;;;106.27;30.43;;;;;;;;;;5002778;28;20027;-69
2024/02/28 02:08:14;;;;;;;108.43;30.25;;;;;;;;;;5002005;28;20260;-69
2024/02/28 02:10:39;;;;;;;99.72;27.02;;;;;;;;;;5007144;28;20025;-70
2024/02/28 02:13:07;;;;;;;107.53;30.05;;;;;;;;;;5000846;28;20030;-69
2024/02/28 02:15:33;;;;;;;115.45;31.27;;;;;;;;;;5001132;28;21024;-69
2024/02/28 02:17:58;;;;;;;102.68;30.13;;;;;;;;;;5004691;28;20543;-70
2024/02/28 02:20:25;;;;;;;112.90;31.05;;;;;;;;;;5005284;28;20033;-69
2024/02/28 02:22:50;;;;;;;100.90;29.48;;;;;;;;;;5005240;28;20164;-69
2024/02/28 02:25:16;;;;;;;98.17;28.97;;;;;;;;;;5005524;28;20101;-69
2024/02/28 02:27:41;;;;;;;104.45;28.10;;;;;;;;;;5010858;28;20259;-69
2024/02/28 02:30:06;;;;;;;96.37;29.50;;;;;;;;;;5006904;28;20030;-69
2024/02/28 02:32:31;;;;;;;101.75;28.65;;;;;;;;;;5010896;28;20303;-69
2024/02/28 02:34:57;;;;;;;97.40;29.60;;;;;;;;;;5007331;28;20107;-69
2024/02/28 02:37:22;;;;;;;70.30;22.48;;;;;;;;;;5004322;28;20032;-69
2024/02/28 02:39:47;;;;;;;102.68;30.85;;;;;;;;;;4999309;28;20481;-69
2024/02/28 02:42:14;;;;;;;99.95;27.77;;;;;;;;;;5009097;28;20175;-69
2024/02/28 02:44:40;;;;;;;85.60;24.20;;;;;;;;;;5003016;28;20026;-69
2024/02/28 02:47:05;;;;;;;109.22;31.23;;;;;;;;;;5003204;28;20097;-69
2024/02/28 02:49:30;;;;;;;108.47;31.77;;;;;;;;;;5005149;28;20109;-69
2024/02/28 02:51:55;;;;;;;89.70;26.37;;;;;;;;;;5009248;28;20289;-69
2024/02/28 02:54:20;;;;;;;110.47;31.73;;;;;;;;;;5008574;28;20352;-69
2024/02/28 02:56:45;;;;;;;112.35;29.65;;;;;;;;;;5002818;28;20268;-69
2024/02/28 02:59:12;;;;;;;104.73;32.83;;;;;;;;;;5002570;28;20080;-70
2024/02/28 03:01:37;;;;;;;107.10;33.28;;;;;;;;;;5005982;28;20743;-69
2024/02/28 03:04:02;;;;;;;109.83;34.20;;;;;;;;;;5008997;28;20025;-70
2024/02/28 03:06:27;;;;;;;114.53;31.48;;;;;;;;;;5005398;28;20332;-69
2024/02/28 03:08:52;;;;;;;113.95;34.28;;;;;;;;;;5006380;28;20523;-69
2024/02/28 03:11:17;;;;;;;113.43;33.60;;;;;;;;;;5007758;28;20018;-69
2024/02/28 03:13:43;;;;;;;130.55;35.67;;;;;;;;;;5010124;28;20473;-69
2024/02/28 03:16:08;;;;;;;113.80;34.60;;;;;;;;;;5008002;28;20041;-70
2024/02/28 03:18:33;;;;;;;130.27;34.67;;;;;;;;;;4998626;28;20671;-70
2024/02/28 03:20:58;;;;;;;118.05;35.65;;;;;;;;;;5004268;28;20424;-70
2024/02/28 03:23:24;;;;;;;114.90;33.80;;;;;;;;;;5004275;28;20117;-69
2024/02/28 03:25:49;;;;;;;124.90;35.55;;;;;;;;;;5010125;28;20022;-69
2024/02/28 03:28:14;;;;;;;112.50;34.65;;;;;;;;;;5001100;28;20500;-70
2024/02/28 03:30:39;;;;;;;126.22;34.00;;;;;;;;;;5008512;28;20030;-69
2024/02/28 03:33:04;;;;;;;122.53;36.00;;;;;;;;;;5001313;28;20424;-69
2024/02/28 03:35:30;;;;;;;120.93;35.80;;;;;;;;;;5005918;28;20451;-69
2024/02/28 03:37:55;;;;;;;114.57;35.87;;;;;;;;;;5006071;28;20017;-69
2024/02/28 03:40:20;;;;;;;130.98;37.63;;;;;;;;;;5004954;28;20363;-69
2024/02/28 03:42:45;;;;;;;119.78;35.88;;;;;;;;;;5005971;28;20069;-69
2024/02/28 03:45:11;;;;;;;123.18;35.33;;;;;;;;;;5001598;28;20262;-69
2024/02/28 03:47:36;;;;;;;120.13;34.27;;;;;;;;;;5005365;28;20097;-69
2024/02/28 03:50:03;;;;;;;115.10;36.22;;;;;;;;;;5004607;28;20616;-69
2024/02/28 03:52:29;;;;;;;113.32;36.10;;;;;;;;;;5005360;28;20116;-69
2024/02/28 03:54:55;;;;;;;129.15;38.00;;;;;;;;;;5005680;28;20561;-69
2024/02/28 03:57:20;;;;;;;121.80;37.60;;;;;;;;;;5009858;28;20112;-69
2024/02/28 03:59:45;;;;;;;111.40;35.60;;;;;;;;;;5007631;28;20053;-70
2024/02/28 04:02:10;;;;;;;133.10;39.07;;;;;;;;;;5002980;28;20382;-69
2024/02/28 04:04:35;;;;;;;141.53;40.67;;;;;;;;;;5005705;28;20273;-69
2024/02/28 04:07:01;;;;;;;132.60;38.55;;;;;;;;;;5006798;28;20585;-69
2024/02/28 04:09:26;;;;;;;141.75;40.25;;;;;;;;;;5002281;28;20448;-70
2024/02/28 04:11:51;;;;;;;121.03;38.55;;;;;;;;;;4999096;28;20470;-69
2024/02/28 04:14:16;;;;;;;134.23;39.30;;;;;;;;;;5003806;28;20065;-69
2024/02/28 04:16:43;;;;;;;124.70;37.92;;;;;;;;;;5004858;28;20112;-70
2024/02/28 04:19:09;;;;;;;143.48;41.30;;;;;;;;;;5005776;28;20025;-69
2024/02/28 04:21:34;;;;;;;120.15;38.75;;;;;;;;;;5006786;28;20383;-69
2024/02/28 04:23:59;;;;;;;132.85;39.80;;;;;;;;;;5007325;28;20389;-69
2024/02/28 04:26:24;;;;;;;132.30;40.80;;;;;;;;;;5007101;28;20524;-69
2024/02/28 04:28:49;;;;;;;141.33;38.60;;;;;;;;;;5005467;28;20275;-69
2024/02/28 04:31:15;;;;;;;122.53;36.90;;;;;;;;;;5007503;28;20267;-69
2024/02/28 04:33:40;;;;;;;133.97;40.50;;;;;;;;;;5008712;28;20336;-70
2024/02/28 04:36:05;;;;;;;133.33;43.10;;;;;;;;;;5007180;28;20786;-69
2024/02/28 04:38:30;;;;;;;139.70;42.60;;;;;;;;;;5002821;28;20269;-69
2024/02/28 04:40:55;;;;;;;139.38;43.20;;;;;;;;;;4997378;28;20034;-69
2024/02/28 04:43:20;;;;;;;145.27;42.13;;;;;;;;;;5005935;28;20025;-69
2024/02/28 04:45:46;;;;;;;142.55;41.85;;;;;;;;;;5001597;28;20762;-69
2024/02/28 04:48:11;;;;;;;144.73;44.15;;;;;;;;;;5005656;28;20014;-69
2024/02/28 04:50:36;;;;;;;151.55;44.95;;;;;;;;;;5003939;28;20030;-69
2024/02/28 04:53:01;;;;;;;148.87;45.60;;;;;;;;;;4997869;28;20496;-69
2024/02/28 04:55:26;;;;;;;144.48;44.97;;;;;;;;;;5004430;28;20273;-70
2024/02/28 04:57:52;;;;;;;172.73;51.92;;;;;;;;;;5001982;28;20064;-69
2024/02/28 05:00:17;;;;;;;149.40;45.38;;;;;;;;;;5004296;28;20137;-69
2024/02/28 05:02:42;;;;;;;119.68;33.30;;;;;;;;;;5006683;28;20018;-69
2024/02/28 05:05:07;;;;;;;159.80;48.42;;;;;;;;;;5003119;28;20505;-69
2024/02/28 05:07:33;;;;;;;159.38;50.22;;;;;;;;;;5003362;28;20117;-69
2024/02/28 05:09:58;;;;;;;158.40;48.75;;;;;;;;;;5000672;28;20038;-69
2024/02/28 05:12:23;;;;;;;158.37;46.47;;;;;;;;;;5003426;28;20026;-69
2024/02/28 05:14:48;;;;;;;158.47;46.93;;;;;;;;;;5008305;28;20276;-69
2024/02/28 05:17:13;;;;;;;156.32;48.15;;;;;;;;;;5003034;28;20968;-69
2024/02/28 05:19:39;;;;;;;149.40;47.40;;;;;;;;;;5008329;28;20030;-69
2024/02/28 05:22:04;;;;;;;161.15;46.72;;;;;;;;;;5001407;28;20263;-69
2024/02/28 05:24:29;;;;;;;161.40;48.72;;;;;;;;;;5009443;28;20026;-69
2024/02/28 05:26:54;;;;;;;156.20;45.88;;;;;;;;;;5004264;28;20034;-69
2024/02/28 05:29:19;;;;;;;150.67;46.67;;;;;;;;;;5005517;28;20116;-69
2024/02/28 05:31:45;;;;;;;149.05;44.17;;;;;;;;;;5005012;28;20360;-70
2024/02/28 05:34:10;;;;;;;159.48;46.58;;;;;;;;;;5012202;28;20432;-69
2024/02/28 05:36:36;;;;;;;151.23;44.78;;;;;;;;;;5006678;28;20022;-69
2024/02/28 05:39:03;;;;;;;144.15;45.60;;;;;;;;;;5005265;28;20021;-69
2024/02/28 05:41:28;;;;;;;129.68;40.05;;;;;;;;;;5008315;28;20033;-69
2024/02/28 05:43:53;;;;;;;129.32;42.83;;;;;;;;;;5007375;28;20018;-69
2024/02/28 05:46:19;;;;;;;133.83;41.10;;;;;;;;;;5004566;28;20494;-69
2024/02/28 05:48:44;;;;;;;143.85;44.40;;;;;;;;;;4998621;28;20264;-69
2024/02/28 05:51:15;;;;;;;141.65;43.88;;;;;;;;;;5004745;28;20076;-69
2024/02/28 05:53:42;;;;;;;149.40;45.78;;;;;;;;;;5004156;28;20026;-69
2024/02/28 05:56:13;;;;;;;144.40;41.83;;;;;;;;;;5005604;28;20032;-69
2024/02/28 05:58:45;;;;;;;140.93;42.97;;;;;;;;;;5004594;28;20483;-69
2024/02/28 06:01:11;;;;;;;141.48;42.90;;;;;;;;;;5003286;28;20034;-69
2024/02/28 06:03:36;;;;;;;148.65;45.90;;;;;;;;;;5004166;28;20044;-69
2024/02/28 06:06:04;;;;;;;70.53;27.27;;;;;;;;;;5004404;28;20022;-69
2024/02/28 06:08:30;;;;;;;118.38;34.70;;;;;;;;;;5004941;28;20014;-70
2024/02/28 06:10:56;;;;;;;135.50;43.25;;;;;;;;;;5004915;28;20484;-69
2024/02/28 06:13:21;;;;;;;141.93;45.45;;;;;;;;;;5004283;28;20076;-70
2024/02/28 06:15:46;;;;;;;158.90;47.17;;;;;;;;;;5002773;28;20030;-69
2024/02/28 06:18:12;;;;;;;147.13;44.33;;;;;;;;;;5002089;28;20257;-69
2024/02/28 06:20:37;;;;;;;140.52;41.65;;;;;;;;;;5009255;28;20052;-69
2024/02/28 06:23:02;;;;;;;148.98;42.08;;;;;;;;;;5002230;28;20224;-70
2024/02/28 06:25:28;;;;;;;130.60;40.08;;;;;;;;;;4999535;28;20019;-69
2024/02/28 06:27:53;;;;;;;140.93;43.38;;;;;;;;;;4998496;28;20444;-69
2024/02/28 06:30:18;;;;;;;132.50;41.10;;;;;;;;;;5005027;28;20511;-70
2024/02/28 06:32:43;;;;;;;140.30;41.22;;;;;;;;;;5006936;28;20076;-69
2024/02/28 06:35:09;;;;;;;102.85;29.60;;;;;;;;;;5008315;28;20018;-69
2024/02/28 06:37:34;;;;;;;155.02;45.25;;;;;;;;;;5003582;28;20146;-69
2024/02/28 06:39:59;;;;;;;142.02;41.47;;;;;;;;;;5002916;28;20032;-69
2024/02/28 06:42:25;;;;;;;117.43;34.85;;;;;;;;;;5005666;28;20033;-69
2024/02/28 06:44:50;;;;;;;153.30;45.13;;;;;;;;;;5004761;28;20017;-69
2024/02/28 06:47:15;;;;;;;130.75;37.97;;;;;;;;;;5003535;28;20261;-69
2024/02/28 06:49:40;;;;;;;129.48;36.03;;;;;;;;;;5008837;28;20018;-69
2024/02/28 06:52:06;;;;;;;142.57;41.00;;;;;;;;;;5004266;28;20433;-69
2024/02/28 06:54:31;;;;;;;153.63;41.35;;;;;;;;;;5003149;28;20299;-69
2024/02/28 06:56:57;;;;;;;135.65;39.95;;;;;;;;;;5001835;28;20061;-70
2024/02/28 06:59:22;;;;;;;142.80;42.33;;;;;;;;;;5008363;28;20048;-69
2024/02/28 07:01:47;;;;;;;149.43;42.22;;;;;;;;;;5007873;28;20524;-69
2024/02/28 07:04:13;;;;;;;133.02;36.45;;;;;;;;;;5008001;28;20021;-69
2024/02/28 07:06:38;;;;;;;134.17;37.77;;;;;;;;;;5009136;28;20121;-69
2024/02/28 07:09:03;;;;;;;134.70;40.35;;;;;;;;;;5006444;28;20253;-69
2024/02/28 07:11:29;;;;;;;144.38;41.80;;;;;;;;;;5011641;28;20083;-69
2024/02/28 07:13:54;;;;;;;142.75;40.72;;;;;;;;;;5010765;28;20485;-69
2024/02/28 07:16:19;;;;;;;130.25;33.65;;;;;;;;;;5006120;28;20030;-69
2024/02/28 07:18:45;;;;;;;99.93;28.35;;;;;;;;;;5007193;28;20022;-69
2024/02/28 07:21:10;;;;;;;130.15;38.45;;;;;;;;;;5006295;28;20076;-69
2024/02/28 07:23:38;;;;;;;118.55;36.53;;;;;;;;;;5001455;28;20018;-69
2024/02/28 07:26:03;;;;;;;137.40;39.45;;;;;;;;;;5002042;28;20041;-69
2024/02/28 07:28:28;;;;;;;140.77;41.45;;;;;;;;;;4998381;28;20099;-69
2024/02/28 07:30:54;;;;;;;138.25;42.70;;;;;;;;;;5008638;28;20025;-69
2024/02/28 07:33:19;;;;;;;155.40;41.60;;;;;;;;;;5008866;28;20539;-69
2024/02/28 07:35:47;;;;;;;117.03;32.92;;;;;;;;;;5009096;28;20550;-69
2024/02/28 07:38:12;;;;;;;129.95;36.67;;;;;;;;;;4997683;28;20058;-69
2024/02/28 07:40:37;;;;;;;135.13;40.85;;;;;;;;;;5002163;28;20079;-69
2024/02/28 07:43:03;;;;;;;127.55;37.05;;;;;;;;;;5000233;28;20172;-69
2024/02/28 07:45:28;;;;;;;148.73;41.13;;;;;;;;;;5004678;28;20488;-69
2024/02/28 07:47:53;;;;;;;131.17;38.03;;;;;;;;;;5007932;28;20026;-69
2024/02/28 07:50:18;;;;;;;139.67;40.43;;;;;;;;;;5008323;28;20249;-69
2024/02/28 07:52:43;;;;;;;125.82;35.50;;;;;;;;;;4999666;28;20272;-69
2024/02/28 07:55:09;;;;;;;109.63;30.87;;;;;;;;;;5002369;28;20026;-69
2024/02/28 07:57:34;;;;;;;116.33;34.37;;;;;;;;;;5003850;28;20277;-69
2024/02/28 08:00:00;;;;;;;132.48;38.35;;;;;;;;;;5007347;28;20415;-70
2024/02/28 08:02:25;;;;;;;128.52;40.53;;;;;;;;;;5008106;28;20013;-70
2024/02/28 08:04:50;;;;;;;124.87;39.37;;;;;;;;;;5004384;28;20084;-70
2024/02/28 08:07:15;;;;;;;104.22;32.70;;;;;;;;;;5001715;28;20265;-70
2024/02/28 08:09:41;;;;;;;124.30;37.72;;;;;;;;;;5002238;28;20474;-70
2024/02/28 08:12:06;;;;;;;77.38;24.33;;;;;;;;;;5003639;28;20045;-70
2024/02/28 08:14:31;;;;;;;114.60;36.03;;;;;;;;;;5008722;28;20024;-72
2024/02/28 08:16:56;;;;;;;114.97;34.53;;;;;;;;;;5007075;28;20025;-70
2024/02/28 08:19:21;;;;;;;117.57;37.87;;;;;;;;;;5007584;28;20643;-70
2024/02/28 08:21:47;;;;;;;116.27;36.83;;;;;;;;;;4998552;28;20315;-71
2024/02/28 08:24:12;;;;;;;110.38;33.90;;;;;;;;;;5003440;28;20284;-70
2024/02/28 08:26:38;;;;;;;127.25;40.72;;;;;;;;;;5007366;28;20018;-70
2024/02/28 08:29:04;;;;;;;118.53;37.30;;;;;;;;;;5007218;28;20018;-68
2024/02/28 08:31:29;;;;;;;104.88;37.92;;;;;;;;;;5008889;28;20037;-70
2024/02/28 08:33:55;;;;;;;130.52;37.28;;;;;;;;;;5002076;28;20014;-70
2024/02/28 08:36:20;;;;;;;125.28;39.33;;;;;;;;;;5005901;28;20476;-68
2024/02/28 08:38:45;;;;;;;72.40;20.85;;;;;;;;;;5001965;28;20093;-68
2024/02/28 08:41:12;;;;;;;106.17;32.73;;;;;;;;;;4994799;28;20172;-68
2024/02/28 08:43:38;;;;;;;103.60;31.45;;;;;;;;;;4998122;28;20261;-68
2024/02/28 08:46:03;;;;;;;53.33;20.25;;;;;;;;;;5005813;28;20014;-70
2024/02/28 08:48:29;;;;;;;109.88;32.80;;;;;;;;;;5007919;28;20097;-68
2024/02/28 08:50:54;;;;;;;97.97;29.77;;;;;;;;;;5001126;28;20018;-68
2024/02/28 08:53:20;;;;;;;92.03;27.92;;;;;;;;;;5006700;28;20140;-68
2024/02/28 08:55:45;;;;;;;129.57;40.60;;;;;;;;;;4998007;28;20545;-69
2024/02/28 08:58:10;;;;;;;71.63;18.73;;;;;;;;;;5001894;28;20029;-68
2024/02/28 09:00:36;;;;;;;124.47;39.83;;;;;;;;;;5002182;28;20767;-68
2024/02/28 09:03:01;;;;;;;115.03;38.53;;;;;;;;;;5005837;28;20253;-68
2024/02/28 09:05:27;;;;;;;92.90;29.58;;;;;;;;;;5006234;28;20744;-69
2024/02/28 09:07:54;;;;;;;106.57;36.47;;;;;;;;;;5006581;28;20464;-69
2024/02/28 09:10:23;;;;;;;116.15;38.50;;;;;;;;;;4999639;28;20557;-69
2024/02/28 09:12:49;;;;;;;71.65;27.02;;;;;;;;;;4998524;28;20026;-69
2024/02/28 09:15:14;;;;;;;116.32;40.00;;;;;;;;;;5000966;28;20052;-69
2024/02/28 09:17:39;;;;;;;119.75;40.97;;;;;;;;;;5006914;28;20018;-69
2024/02/28 09:20:06;;;;;;;101.28;31.38;;;;;;;;;;5004068;28;20049;-69
2024/02/28 09:22:31;;;;;;;88.82;26.27;;;;;;;;;;5005313;28;20473;-70
2024/02/28 09:24:56;;;;;;;100.97;35.53;;;;;;;;;;5006440;28;20018;-69
2024/02/28 09:27:21;;;;;;;53.15;18.95;;;;;;;;;;5004664;28;20335;-69
2024/02/28 09:29:47;;;;;;;37.38;13.82;;;;;;;;;;5006237;28;20084;-69
2024/02/28 09:32:12;;;;;;;63.53;22.33;;;;;;;;;;5000350;28;20034;-70
2024/02/28 09:34:37;;;;;;;108.38;36.80;;;;;;;;;;5007109;28;20038;-69
2024/02/28 09:37:04;;;;;;;102.03;33.70;;;;;;;;;;5006025;28;20080;-69
2024/02/28 09:39:29;;;;;;;105.30;34.63;;;;;;;;;;5006714;28;20025;-69
2024/02/28 09:41:54;;;;;;;40.30;13.75;;;;;;;;;;5006100;28;20421;-69
2024/02/28 09:44:20;;;;;;;91.63;30.80;;;;;;;;;;5004888;28;20022;-69
2024/02/28 09:46:48;;;;;;;98.40;34.90;;;;;;;;;;5000825;28;20021;-69
2024/02/28 09:49:14;;;;;;;52.03;16.00;;;;;;;;;;5007048;28;21801;-69
2024/02/28 09:51:40;;;;;;;83.55;24.15;;;;;;;;;;5007396;28;20026;-69
2024/02/28 09:54:05;;;;;;;54.93;18.37;;;;;;;;;;5005476;28;20488;-69
2024/02/28 09:56:31;;;;;;;88.32;29.42;;;;;;;;;;5000626;28;20289;-69
2024/02/28 09:58:56;;;;;;;98.72;31.80;;;;;;;;;;5001741;28;20512;-69
2024/02/28 10:01:22;;;;;;;98.05;34.72;;;;;;;;;;5003725;28;20500;-69
2024/02/28 10:03:48;;;;;;;99.22;38.22;;;;;;;;;;5004269;28;20014;-69
2024/02/28 10:06:15;;;;;;;105.93;35.35;;;;;;;;;;5003751;28;20021;-69
2024/02/28 10:08:40;;;;;;;75.28;23.48;;;;;;;;;;5006220;28;20442;-69
2024/02/28 10:11:05;;;;;;;63.35;21.92;;;;;;;;;;5009152;28;20057;-69
2024/02/28 10:13:31;;;;;;;73.13;20.97;;;;;;;;;;5006409;28;20274;-69
2024/02/28 10:15:56;;;;;;;69.57;25.75;;;;;;;;;;5005684;28;20440;-69
2024/02/28 10:18:21;;;;;;;30.17;12.20;;;;;;;;;;5004572;28;20033;-69
2024/02/28 10:20:47;;;;;;;50.88;20.13;;;;;;;;;;5010761;28;20039;-69
2024/02/28 10:23:12;;;;;;;94.35;39.17;;;;;;;;;;5003961;28;20076;-70
2024/02/28 10:25:45;;;;;;;51.63;18.42;;;;;;;;;;5008696;28;20469;-70
2024/02/28 10:28:10;;;;;;;57.42;21.00;;;;;;;;;;5011298;28;20519;-70
2024/02/28 10:30:40;;;;;;;83.22;33.42;;;;;;;;;;5008945;28;20064;-69
2024/02/28 10:33:05;;;;;;;88.78;29.98;;;;;;;;;;5004722;28;20030;-69
2024/02/28 10:35:30;;;;;;;31.90;10.93;;;;;;;;;;5001015;28;20076;-69
2024/02/28 10:37:56;;;;;;;86.35;31.20;;;;;;;;;;5004437;28;20273;-70
2024/02/28 10:40:22;;;;;;;68.35;22.58;;;;;;;;;;5007151;28;20026;-70
2024/02/28 10:42:47;;;;;;;55.50;20.55;;;;;;;;;;5005437;28;20025;-69
2024/02/28 10:45:12;;;;;;;75.35;30.42;;;;;;;;;;5006418;28;20018;-70
2024/02/28 10:47:38;;;;;;;76.80;29.02;;;;;;;;;;5003008;28;20066;-70
2024/02/28 10:50:03;;;;;;;72.72;27.08;;;;;;;;;;4999847;28;20291;-70
2024/02/28 10:52:33;;;;;;;90.80;39.15;;;;;;;;;;5004409;28;20112;-69
2024/02/28 10:55:00;;;;;;;84.85;32.88;;;;;;;;;;5004617;28;20080;-70
2024/02/28 10:57:25;;;;;;;85.25;30.45;;;;;;;;;;5006977;28;20396;-69
2024/02/28 10:59:51;;;;;;;68.45;24.63;;;;;;;;;;5009639;28;20021;-70
2024/02/28 11:02:16;;;;;;;67.68;24.65;;;;;;;;;;5002021;28;20026;-70
2024/02/28 11:04:41;;;;;;;94.95;34.40;;;;;;;;;;5003803;28;20052;-69
2024/02/28 11:07:06;;;;;;;59.63;24.70;;;;;;;;;;5004002;28;20029;-70
2024/02/28 11:09:34;;;;;;;90.15;32.50;;;;;;;;;;5007286;28;20056;-69
2024/02/28 11:11:59;;;;;;;89.70;35.97;;;;;;;;;;5005668;28;20022;-69
2024/02/28 11:14:26;;;;;;;82.50;32.13;;;;;;;;;;5002420;28;20021;-71
2024/02/28 11:17:01;;;;;;;71.00;26.77;;;;;;;;;;5000068;28;20757;-69
2024/02/28 11:19:27;;;;;;;75.50;32.42;;;;;;;;;;5005001;28;21371;-70
2024/02/28 11:21:56;;;;;;;81.70;31.52;;;;;;;;;;5009896;28;20024;-70
2024/02/28 11:24:25;;;;;;;76.68;32.20;;;;;;;;;;5006458;28;20389;-70
2024/02/28 11:26:51;;;;;;;78.65;32.65;;;;;;;;;;5008914;28;20022;-71
2024/02/28 11:29:16;;;;;;;76.88;28.10;;;;;;;;;;5007875;28;20068;-69
2024/02/28 11:31:41;;;;;;;47.60;16.70;;;;;;;;;;5005467;28;20527;-70
2024/02/28 11:34:07;;;;;;;64.88;22.48;;;;;;;;;;5002011;28;20050;-70
2024/02/28 11:36:32;;;;;;;35.95;15.30;;;;;;;;;;5007263;28;20390;-70
2024/02/28 11:38:57;;;;;;;71.47;26.90;;;;;;;;;;5000908;28;20019;-70
2024/02/28 11:41:29;;;;;;;50.47;20.65;;;;;;;;;;5005419;28;20096;-70
2024/02/28 11:43:54;;;;;;;81.70;31.48;;;;;;;;;;5002558;28;20511;-69
2024/02/28 11:46:19;;;;;;;63.27;23.90;;;;;;;;;;5004520;28;20026;-69
2024/02/28 11:48:45;;;;;;;64.60;26.92;;;;;;;;;;5004586;28;20265;-70
2024/02/28 11:51:10;;;;;;;60.70;23.95;;;;;;;;;;5004901;28;20026;-69
2024/02/28 11:53:35;;;;;;;66.47;23.17;;;;;;;;;;4997983;28;20038;-70
2024/02/28 11:56:01;;;;;;;60.17;27.00;;;;;;;;;;5002713;28;20312;-70
2024/02/28 11:58:26;;;;;;;41.83;15.73;;;;;;;;;;5003571;28;20260;-70
2024/02/28 12:00:51;;;;;;;64.90;28.08;;;;;;;;;;5006141;28;20033;-70
2024/02/28 12:03:20;;;;;;;72.40;31.95;;;;;;;;;;5008164;28;20036;-70
2024/02/28 12:05:46;;;;;;;62.15;22.98;;;;;;;;;;5004983;28;20113;-69
2024/02/28 12:08:11;;;;;;;51.03;16.77;;;;;;;;;;4999035;28;20112;-69
2024/02/28 12:10:36;;;;;;;40.55;16.05;;;;;;;;;;5003612;28;20275;-69
2024/02/28 12:13:01;;;;;;;62.80;25.57;;;;;;;;;;5004726;28;20520;-70
2024/02/28 12:15:30;;;;;;;63.55;27.02;;;;;;;;;;5006116;28;20245;-70
2024/02/28 12:17:55;;;;;;;58.05;23.92;;;;;;;;;;5000046;28;20329;-70
2024/02/28 12:20:20;;;;;;;47.77;14.63;;;;;;;;;;5000268;28;20097;-70
2024/02/28 12:22:45;;;;;;;31.30;12.38;;;;;;;;;;5002523;28;20264;-69
2024/02/28 12:25:11;;;;;;;58.00;21.90;;;;;;;;;;4999111;28;20440;-69
2024/02/28 12:27:36;;;;;;;62.58;29.35;;;;;;;;;;5006144;28;20265;-69
2024/02/28 12:30:01;;;;;;;64.80;26.38;;;;;;;;;;5006958;28;20485;-69
2024/02/28 12:32:26;;;;;;;25.48;10.25;;;;;;;;;;5002943;28;20025;-70
2024/02/28 12:34:52;;;;;;;54.10;23.93;;;;;;;;;;4996923;28;20034;-69
2024/02/28 12:37:17;;;;;;;56.00;20.53;;;;;;;;;;5002221;28;20340;-69
2024/02/28 12:39:42;;;;;;;33.85;13.05;;;;;;;;;;5003099;28;20295;-70
2024/02/28 12:42:08;;;;;;;52.22;23.25;;;;;;;;;;5003953;28;20070;-70
2024/02/28 12:44:33;;;;;;;68.50;27.33;;;;;;;;;;5004368;28;20400;-70
2024/02/28 12:46:59;;;;;;;45.80;19.40;;;;;;;;;;5007756;28;20472;-70
2024/02/28 12:49:24;;;;;;;45.92;19.08;;;;;;;;;;5001004;28;20619;-70
2024/02/28 12:51:51;;;;;;;47.33;17.87;;;;;;;;;;5001432;28;20495;-70
2024/02/28 12:54:16;;;;;;;52.28;21.15;;;;;;;;;;5003400;28;20273;-70
2024/02/28 12:56:44;;;;;;;46.42;21.13;;;;;;;;;;5002094;28;20028;-70
2024/02/28 12:59:10;;;;;;;50.50;22.00;;;;;;;;;;5006725;28;20018;-69
2024/02/28 13:01:35;;;;;;;40.40;15.48;;;;;;;;;;4999531;28;20018;-69
2024/02/28 13:04:01;;;;;;;47.80;19.75;;;;;;;;;;5005705;28;20017;-69
2024/02/28 13:06:26;;;;;;;48.22;18.92;;;;;;;;;;5002871;28;20547;-69
2024/02/28 13:08:51;;;;;;;48.50;23.75;;;;;;;;;;4999338;28;20052;-69
2024/02/28 13:11:21;;;;;;;49.22;19.38;;;;;;;;;;5001872;28;20021;-69
2024/02/28 13:13:50;;;;;;;51.72;22.27;;;;;;;;;;5000760;28;20030;-69
2024/02/28 13:16:16;;;;;;;53.05;21.77;;;;;;;;;;4999389;28;20034;-69
2024/02/28 13:18:41;;;;;;;42.10;16.92;;;;;;;;;;5007738;28;20030;-70
2024/02/28 13:21:06;;;;;;;44.00;17.90;;;;;;;;;;5000922;28;20038;-69
2024/02/28 13:23:31;;;;;;;49.28;21.40;;;;;;;;;;5005703;28;20565;-69
2024/02/28 13:25:57;;;;;;;42.28;19.95;;;;;;;;;;5007376;28;20022;-69
2024/02/28 13:28:29;;;;;;;29.83;10.93;;;;;;;;;;5004500;28;20029;-69
2024/02/28 13:30:54;;;;;;;30.75;11.60;;;;;;;;;;5005333;28;20022;-69
2024/02/28 13:33:19;;;;;;;43.60;15.93;;;;;;;;;;5006449;28;20036;-69
2024/02/28 13:35:45;;;;;;;25.42;8.40;;;;;;;;;;5005452;28;20030;-69
2024/02/28 13:38:10;;;;;;;21.03;7.67;;;;;;;;;;5006400;28;20053;-69
2024/02/28 13:40:35;;;;;;;40.13;15.53;;;;;;;;;;5007522;28;20287;-69
2024/02/28 13:43:00;;;;;;;44.37;17.07;;;;;;;;;;5008768;28;20285;-69
2024/02/28 13:45:25;;;;;;;30.75;11.27;;;;;;;;;;5007951;28;20260;-70
2024/02/28 13:47:50;;;;;;;32.57;13.13;;;;;;;;;;5008084;28;20018;-69
2024/02/28 13:50:16;;;;;;;37.60;15.53;;;;;;;;;;5005680;28;20288;-69
2024/02/28 13:52:41;;;;;;;33.43;13.30;;;;;;;;;;5006730;28;20280;-69
2024/02/28 13:55:07;;;;;;;39.40;14.13;;;;;;;;;;5009125;28;20387;-69
2024/02/28 13:57:32;;;;;;;34.00;13.23;;;;;;;;;;5006191;28;20743;-69
2024/02/28 13:59:57;;;;;;;37.93;16.97;;;;;;;;;;5008857;28;20026;-69
2024/02/28 14:02:25;;;;;;;30.02;11.85;;;;;;;;;;5009926;28;20253;-69